Nearby METAR Reports

 

KCXY - Harrisburg, Pennsylvania, USA
Distance from station: E 9mi, 14km
Updated: Wed, 06-Jul-2022 9:56pm EDT
unable to load KCXY data RC=
unable to load KCXY data RC=
 
KMDT - Middletown, Pennsylvania, USA
Distance from station: E 13mi, 21km
Updated: Wed, 06-Jul-2022 8:56pm EDT
Overcast
Overcast
 Wind from NE
Wind: NE 3 mph , 6 km/h
Temperature: 81°F , 27°C
Heat Index: 82°F , 28°C
Dew Point: 63°F , 17°C
Humidity: 54%
Barometer: 29.91 inHg , 1012.9 hPa
Clouds: Overcast
Visibility: 10 miles , 16 km
Cloud details: Few Clouds 4100 ft
Partly cloudy 6000 ft
Overcast 9000 ft
2022/07/07 00:56 KMDT 070056Z 05003KT 10SM FEW041 SCT060 OVC090 27/17 A2991 RMK AO2 SLP125 T02670167
 
KTHV - York, Pennsylvania, USA
Distance from station: SSE 22mi, 36km
Updated: Wed, 06-Jul-2022 9:53pm EDT
Mostly cloudy
Mostly cloudy
 Wind from ENE
Wind: ENE 3 mph , 6 km/h
Temperature: 77°F , 25°C
Dew Point: 70°F , 21°C
Humidity: 79%
Barometer: 29.93 inHg , 1013.5 hPa
Clouds: Mostly cloudy
Visibility: 10 miles , 16 km
Cloud details: Mostly cloudy 9500 ft
Mostly cloudy 12000 ft
2022/07/07 01:53 KTHV 070153Z AUTO 07003KT 10SM BKN095 BKN120 25/21 A2993 RMK AO2 SLP132 T02500211 TSNO
KMUI - Muir Aaf/Indiant, Pennsylvania, USA
Distance from station: ENE 27mi, 44km
Updated: Wed, 06-Jul-2022 9:56pm EDT
unable to load KMUI data RC=
unable to load KMUI data RC=
 
 
KLNS - Lancaster, Pennsylvania, USA
Distance from station: E 38mi, 62km
Updated: Wed, 06-Jul-2022 9:53pm EDT
Mostly cloudy
Mostly cloudy
 Wind from NE
Wind: NE 7 mph , 11 km/h
Temperature: 79°F , 26°C
Dew Point: 63°F , 17°C
Humidity: 58%
Barometer: 29.94 inHg , 1013.9 hPa
Clouds: Mostly cloudy
Visibility: 10 miles , 16 km
Cloud details: Partly cloudy 7000 ft
Mostly cloudy 8500 ft
Mostly cloudy 11000 ft
2022/07/07 01:53 KLNS 070153Z 05006KT 10SM SCT070 BKN085 BKN110 26/17 A2994 RMK AO2 SLP133 T02560172
KRYT - Fountain Dale, Pennsylvania, USA
Distance from station: SSW 40mi, 65km
Updated: Mon, 13-Nov-2017 7:53am EST
NOT Current
Mist, Overcast
Mist, Overcast
 Wind from calm
Wind: Calm
Temperature: 37°F , 3°C
Dew Point: 34°F , 1°C
Humidity: 87%
Barometer: 30.31 inHg , 1026.4 hPa
Summary: Mist
Clouds: Overcast
Visibility: 5 miles , 8 km
Cloud details: Overcast 700 ft
2017/11/13 12:53 KRYT 131253Z AUTO 00000KT 5SM BR OVC007 03/01 A3031 RMK AO2 SLP275 T00280011 TSNO $
 
KSEG - Selinsgrove, Pennsylvania, USA
Distance from station: N 42mi, 67km
Updated: Wed, 06-Jul-2022 9:56pm EDT
unable to load KSEG data RC=
unable to load KSEG data RC=
 
KDMW - Carroll Cnty, Maryland, USA
Distance from station: S 43mi, 69km
Updated: Wed, 06-Jul-2022 9:56pm EDT
unable to load KDMW data RC=
unable to load KDMW data RC=
 
 
KRSP - Camp David, Maryland, USA
Distance from station: SSW 46mi, 74km
Updated: Wed, 06-Jul-2022 3:54pm EDT
NOT Current
Partly cloudy
Partly cloudy
 Wind from varies
Wind: varies 7 mph , 11 km/h
Temperature: 82°F , 28°C
Barometer: 29.97 inHg , 1014.9 hPa
Clouds: Partly cloudy
Cloud details: Few Clouds 2900 ft
Partly cloudy 3700 ft
2022/07/06 19:54 KRSP 061954Z AUTO VRB06KT FEW029 SCT037 28/ A2997 RMK AO2 SLP137 T0278 $